Holmes Beach, FL

7:59 PM EDT on April 18, 2015 (GMT -0400)
Saint Petersburg-Clearwater International | | Change Station
CLOSE
Current Station
Airport
Location: St. Petersburg Airport,
Elevation: 10 ft
Nearby Weather Stations

Elev 10 ft 27.91 °N, 82.69 °W | Updated 6 minutes ago

Clear
Clear
79 °F
Feels Like 79 °F
N
8
Wind Variable Wind from WSW

Today
High -- | Low -- °F
--% Chance of Precip.
Yesterday
High -- | Low -- °F
Precip. -- in
7:03 AM 7:57 PM
New Moon, 0% visible
Pressure 29.95 in
Visibility 8.0 miles
Clouds Clear
Dew Point 72 °F
Humidity 79%
Rainfall 0.00 in
Snow Depth Not available.
UV 0 out of 12
Pollen 8.80 out of 12
Air Quality Not available.
Flu Activity Local Activity
METAR KPIE 182353Z 25007KT 8SM CLR 26/22 A2995 RMK AO2 SLP141 T02610222 10306 20261 53006

More Conditions Fewer Conditions

Pressure 29.95 in
Visibility 8.0 miles
Clouds Clear
Dew Point 72 °F
Humidity 79%
Rainfall 0.00 in
Snow Depth Not available.
UV 0 out of 12
Pollen 8.80 out of 12
Air Quality Not available.
Flu Activity Local Activity
METAR KPIE 182353Z 25007KT 8SM CLR 26/22 A2995 RMK AO2 SLP141 T02610222 10306 20261 53006

More Conditions Fewer Conditions

10-Day Weather Forecast

Almanac

Astronomy

Apr. 18, 2015 Rise Set
Actual Time
Civil Twilight
Nautical Twilight
Astronomical Twilight
Moon
Length of Visible Light
Length of Day
Tomorrow will be .
, % of the Moon is Illuminated

Today's Extremes

State Highs State Lows

Community

WunderPhotos

Upload Photos

1,814,580 photos uploaded!

WunderBlogs® & News

Nearby

Air Quality

  Air Quality AQ Index Pollutant
Not available.

Snow Depth

Station Depth Elevation

Earthquake Activity

City Distance Mag. Time & Date
Minimum magnitude displayed is 2.5.

Coastal Water Temperatures

Place Temperature

Stations

Nearby Weather Stations

Station Location Temp. Windchill Dew Point Humidity Wind Precip. Elev Updated Type